Tuesday, January 16, 2018, 12:18 PM EST
Back to Local

KTEB, Teterboro Airport

Location: South Hackensack, NJ, United States Lat: 40.867
Local Time: 12:18 PM EST (17:18 GMT) Lon: -74.05
Time Zone: US/Eastern Elev: 9 ft

Show me the last for .
Show Decoded

2018-01-16 11:51 METAR KTEB 161651Z 04004KT 10SM BKN032 OVC070 00/M05 A3046 RMK AO2 SLP316
                 T00001050 =
2018-01-16 10:51 METAR KTEB 161551Z 00000KT 10SM SCT032 OVC075 M01/M05 A3049 RMK AO2 SLP326
                 T10061050 =
2018-01-16 09:51 METAR KTEB 161451Z 00000KT 10SM OVC080 M01/M05 A3050 RMK AO2 SLP328 T10111050
                 58003 =
2018-01-16 08:51 METAR KTEB 161351Z 18006KT 10SM SCT032 OVC080 M02/M06 A3051 RMK AO2 SLP329
                 T10221061 =
2018-01-16 07:58 METAR KTEB 161258Z 04004KT 10SM OVC033 M03/M07 A3051 =
2018-01-16 07:51 METAR KTEB 161251Z 05004KT 10SM OVC014 M03/M07 A3051 RMK AO2 SLP331 T10281072 =
2018-01-16 06:58 METAR KTEB 161158Z 04003KT 10SM OVC014 M03/M08 A3051 =
2018-01-16 06:51 METAR KTEB 161151Z VRB04KT 10SM OVC015 M03/M08 A3051 RMK AO2 SLP331 T10281078
                 11028 21044 53001 =
2018-01-16 05:51 METAR KTEB 161051Z 06005KT 10SM OVC015 M04/M08 A3050 RMK AO2 SLP327 T10391083 =
2018-01-16 04:51 METAR KTEB 160951Z 00000KT 10SM OVC015 M04/M09 A3050 RMK AO2 SLP329 T10391089 =
2018-01-16 03:51 METAR KTEB 160851Z 00000KT 10SM OVC017 M04/M09 A3051 RMK AO2 SLP330 T10391094
                 53005 =
2018-01-16 03:42 METAR KTEB 160842Z 10SM OVC017 M04/M09 A3050 RMK AO2 T10391094 =
2018-01-16 02:51 METAR KTEB 160751Z 01006KT 10SM CLR M04/M09 A3051 RMK AO2 SLP330 T10441094 =
2018-01-16 01:51 METAR KTEB 160651Z 03007KT 10SM CLR M04/M10 A3048 RMK AO2 SLP323 T10441100 =
2018-01-16 00:51 METAR KTEB 160551Z 03007KT 10SM CLR M04/M10 A3049 RMK AO2 SLP325 T10441100 11028
                 21044 58007 =
2018-01-15 23:51 METAR KTEB 160451Z 02003KT 10SM CLR M04/M09 A3050 RMK AO2 SLP327 T10441094
                 410061094 =
2018-01-15 22:51 METAR KTEB 160351Z 04006KT 10SM CLR M04/M09 A3051 RMK AO2 SLP331 T10441094 =
2018-01-15 21:51 METAR KTEB 160251Z 10SM CLR M04/M09 A3051 RMK AO2 SLP332 T10441094 58005 =
2018-01-15 20:51 METAR KTEB 160151Z 05008KT 10SM CLR M04/M09 A3052 RMK AO2 SLP334 T10391089 =
2018-01-15 19:51 METAR KTEB 160051Z 04005KT 10SM CLR M03/M09 A3054 RMK AO2 SLP342 T10331089 =
2018-01-15 18:51 METAR KTEB 152351Z 07007KT 10SM CLR M03/M09 A3053 RMK AO2 SLP338 T10281094 11006
                 21028 50004 =
2018-01-15 17:51 METAR KTEB 152251Z 06007G16KT 10SM CLR M02/M09 A3053 RMK AO2 SLP339 T10171089 =
2018-01-15 16:51 METAR KTEB 152151Z 05008G14KT 360V070 10SM CLR M02/M09 A3053 RMK AO2 SLP337
                 T10171089 =
2018-01-15 15:51 METAR KTEB 152051Z 03010G16KT 10SM CLR M01/M09 A3052 RMK AO2 SLP334 T10111094
                 56019 =
2018-01-15 14:51 METAR KTEB 151951Z 01007KT 10SM CLR M01/M09 A3053 RMK AO2 SLP338 T10061089 =
2018-01-15 13:51 METAR KTEB 151851Z 02008KT 350V060 10SM BKN035 M01/M09 A3054 RMK AO2 SLP342
                 T10061089 =
2018-01-15 12:51 METAR KTEB 151751Z 06009G18KT 020V100 10SM OVC036 M02/M09 A3058 RMK AO2 SLP353
                 T10171094 11017 21089 58031 =

Support USWX by starting your Amazon purchase here.